createdAt,value
2019-02-21T00:01:00.733Z,101284.30
2019-02-21T00:02:35.688Z,101292.14
2019-02-21T00:04:10.476Z,101290.77
2019-02-21T00:05:45.669Z,101296.09
2019-02-21T00:07:20.486Z,101296.12
2019-02-21T00:08:55.504Z,101290.22
2019-02-21T00:10:30.287Z,101288.05
2019-02-21T00:12:05.510Z,101290.87
2019-02-21T00:13:41.037Z,101295.80
2019-02-21T00:15:16.064Z,101294.05
2019-02-21T00:16:51.106Z,101298.73
2019-02-21T00:18:26.140Z,101304.30
2019-02-21T00:20:00.922Z,101298.60
2019-02-21T00:21:35.949Z,101299.53
2019-02-21T00:23:10.757Z,101300.53
2019-02-21T00:24:45.804Z,101300.52
2019-02-21T00:26:20.572Z,101296.26
2019-02-21T00:27:55.620Z,101295.17
2019-02-21T00:29:30.676Z,101304.47
2019-02-21T00:31:05.464Z,101308.12
2019-02-21T00:32:40.479Z,101308.34
2019-02-21T00:34:15.503Z,101305.08
2019-02-21T00:35:50.794Z,101314.38
2019-02-21T00:37:25.807Z,101317.85
2019-02-21T00:39:00.680Z,101310.42
2019-02-21T00:40:35.724Z,101313.52
2019-02-21T00:42:10.524Z,101307.61
2019-02-21T00:43:45.555Z,101316.66
2019-02-21T00:45:20.322Z,101317.14
2019-02-21T00:46:55.331Z,101319.50
2019-02-21T00:48:30.681Z,101320.67
2019-02-21T00:50:05.772Z,101325.34
2019-02-21T00:51:40.805Z,101324.92
2019-02-21T00:53:15.605Z,101329.55
2019-02-21T00:54:50.668Z,101325.30
2019-02-21T00:56:25.444Z,101319.53
2019-02-21T00:58:00.583Z,101322.64
2019-02-21T00:59:35.364Z,101317.00
2019-02-21T01:01:10.529Z,101325.12
2019-02-21T01:02:45.310Z,101325.23
2019-02-21T01:04:20.091Z,101322.56
2019-02-21T01:05:54.872Z,101314.89
2019-02-21T01:07:30.005Z,101316.50
2019-02-21T01:09:06.617Z,101313.40
2019-02-21T01:10:41.715Z,101309.67
2019-02-21T01:12:16.600Z,101309.81
2019-02-21T01:13:51.435Z,101308.13
2019-02-21T01:15:26.211Z,101312.33
2019-02-21T01:17:01.259Z,101314.35
2019-02-21T01:18:36.341Z,101319.86
2019-02-21T01:20:11.493Z,101312.67
2019-02-21T01:21:46.286Z,101322.02
2019-02-21T01:23:21.069Z,101322.94
2019-02-21T01:24:55.881Z,101314.94
2019-02-21T01:26:30.654Z,101311.73
2019-02-21T01:28:05.998Z,101310.69
2019-02-21T01:29:41.070Z,101310.08
2019-02-21T01:31:16.097Z,101308.36
2019-02-21T01:32:50.884Z,101305.74
2019-02-21T01:34:25.928Z,101310.28
2019-02-21T01:36:00.748Z,101314.22
2019-02-21T01:37:35.789Z,101313.05
2019-02-21T01:39:10.931Z,101308.92
2019-02-21T01:40:45.710Z,101306.84
2019-02-21T01:42:20.498Z,101307.55
2019-02-21T01:43:55.814Z,101308.12
2019-02-21T01:45:31.127Z,101307.96
2019-02-21T01:47:05.911Z,101316.09
2019-02-21T01:48:40.758Z,101311.30
2019-02-21T01:50:16.155Z,101308.44
2019-02-21T01:51:51.170Z,101310.28
2019-02-21T01:53:26.213Z,101308.45
2019-02-21T01:55:01.244Z,101308.42
2019-02-21T01:56:36.015Z,101309.30
2019-02-21T01:58:11.118Z,101308.94
2019-02-21T01:59:45.890Z,101307.84
2019-02-21T02:01:20.710Z,101294.73
2019-02-21T02:02:55.486Z,101304.32
2019-02-21T02:04:30.523Z,101300.97
2019-02-21T02:06:05.328Z,101301.27
2019-02-21T02:07:40.287Z,101299.44
2019-02-21T02:09:15.636Z,101306.27
2019-02-21T02:10:50.619Z,101306.73
2019-02-21T02:12:25.728Z,101299.13
2019-02-21T02:14:01.110Z,101300.86
2019-02-21T02:15:35.887Z,101301.97
2019-02-21T02:17:10.929Z,101291.55
2019-02-21T02:18:45.978Z,101294.90
2019-02-21T02:20:20.793Z,101290.22
2019-02-21T02:21:55.637Z,101285.06
2019-02-21T02:23:30.413Z,101289.07
2019-02-21T02:25:05.439Z,101284.96
2019-02-21T02:26:40.721Z,101281.69
2019-02-21T02:28:15.784Z,101279.70
2019-02-21T02:29:50.586Z,101281.91
2019-02-21T02:31:25.352Z,101287.40
2019-02-21T02:33:00.127Z,101288.91
2019-02-21T02:34:35.220Z,101278.58
2019-02-21T02:36:10.242Z,101276.61
2019-02-21T02:37:45.277Z,101283.59
2019-02-21T02:39:20.337Z,101283.73
2019-02-21T02:40:55.424Z,101282.86
2019-02-21T02:42:30.450Z,101288.83
2019-02-21T02:44:05.497Z,101283.44
2019-02-21T02:45:40.538Z,101280.95
2019-02-21T02:47:15.827Z,101285.38
2019-02-21T02:48:50.868Z,101289.26
2019-02-21T02:50:25.663Z,101288.04
2019-02-21T02:52:00.465Z,101285.00
2019-02-21T02:53:35.244Z,101280.89
2019-02-21T02:55:10.558Z,101280.99
2019-02-21T02:56:45.346Z,101279.98
2019-02-21T02:58:20.160Z,101276.67
2019-02-21T02:59:54.931Z,101275.81
2019-02-21T03:01:34.620Z,101276.77
2019-02-21T03:03:06.554Z,101271.34
2019-02-21T03:04:43.672Z,101277.19
2019-02-21T03:06:18.258Z,101276.02
2019-02-21T03:07:53.169Z,101279.39
2019-02-21T03:09:27.953Z,101286.91
2019-02-21T03:11:02.994Z,101285.86
2019-02-21T03:12:37.781Z,101283.24
2019-02-21T03:14:12.548Z,101287.20
2019-02-21T03:15:47.593Z,101288.52
2019-02-21T03:17:22.866Z,101282.10
2019-02-21T03:18:57.650Z,101287.58
2019-02-21T03:20:32.743Z,101284.34
2019-02-21T03:22:07.534Z,101277.31
2019-02-21T03:23:42.353Z,101277.09
2019-02-21T03:25:17.152Z,101274.88
2019-02-21T03:26:52.195Z,101275.56
2019-02-21T03:28:26.968Z,101272.33
2019-02-21T03:30:01.767Z,101280.91
2019-02-21T03:31:53.694Z,101281.02
2019-02-21T03:33:13.448Z,101285.38
2019-02-21T03:34:48.763Z,101290.30
2019-02-21T03:36:23.542Z,101287.48
2019-02-21T03:37:58.651Z,101285.27
2019-02-21T03:39:33.671Z,101291.33
2019-02-21T03:41:08.487Z,101288.20
2019-02-21T03:42:43.271Z,101296.20
2019-02-21T03:44:18.397Z,101292.37
2019-02-21T03:45:53.661Z,101286.47
2019-02-21T03:47:28.548Z,101290.98
2019-02-21T03:49:03.616Z,101285.31
2019-02-21T03:50:38.694Z,101287.04
2019-02-21T03:52:13.731Z,101283.08
2019-02-21T03:53:49.109Z,101279.79
2019-02-21T03:55:24.039Z,101284.20
2019-02-21T03:56:59.622Z,101286.15
2019-02-21T03:58:34.555Z,101278.74
2019-02-21T04:00:09.623Z,101285.59
2019-02-21T04:01:44.815Z,101292.76
2019-02-21T04:03:19.971Z,101293.69
2019-02-21T04:04:55.312Z,101287.29
2019-02-21T04:06:30.462Z,101295.73
2019-02-21T04:08:05.422Z,101291.60
2019-02-21T04:09:41.169Z,101299.92
2019-02-21T04:11:16.187Z,101302.61
2019-02-21T04:12:51.241Z,101310.03
2019-02-21T04:14:26.061Z,101308.17
2019-02-21T04:16:01.079Z,101313.93
2019-02-21T04:17:36.213Z,101306.73
2019-02-21T04:19:11.006Z,101309.62
2019-02-21T04:20:46.045Z,101315.36
2019-02-21T04:22:20.858Z,101310.53
2019-02-21T04:23:56.057Z,101309.70
2019-02-21T04:25:30.843Z,101305.38
2019-02-21T04:27:05.688Z,101309.19
2019-02-21T04:28:40.467Z,101315.17
2019-02-21T04:30:15.272Z,101305.35
2019-02-21T04:31:50.057Z,101302.17
2019-02-21T04:33:25.360Z,101299.97
2019-02-21T04:35:00.675Z,101299.97
2019-02-21T04:36:35.723Z,101297.94
2019-02-21T04:38:10.763Z,101292.49
2019-02-21T04:39:45.783Z,101296.30
2019-02-21T04:41:20.800Z,101291.66
2019-02-21T04:42:55.908Z,101292.90
2019-02-21T04:44:30.727Z,101283.48
2019-02-21T04:46:05.507Z,101285.57
2019-02-21T04:47:40.564Z,101289.51
2019-02-21T04:49:15.382Z,101291.41
2019-02-21T04:50:50.428Z,101289.60
2019-02-21T04:52:25.201Z,101293.43
2019-02-21T04:54:00.505Z,101288.89
2019-02-21T04:55:35.537Z,101287.89
2019-02-21T04:57:10.331Z,101288.27
2019-02-21T04:58:45.377Z,101286.27
2019-02-21T05:00:20.151Z,101292.29
2019-02-21T05:01:54.964Z,101289.05
2019-02-21T05:03:30.268Z,101290.55
2019-02-21T05:05:05.719Z,101289.85
2019-02-21T05:06:40.498Z,101298.34
2019-02-21T05:08:15.775Z,101297.72
2019-02-21T05:09:58.015Z,101290.75
2019-02-21T05:11:27.316Z,101293.09
2019-02-21T05:13:02.104Z,101298.86
2019-02-21T05:14:37.271Z,101294.70
2019-02-21T05:16:12.054Z,101292.85
2019-02-21T05:17:46.836Z,101299.23
2019-02-21T05:19:21.879Z,101298.96
2019-02-21T05:20:56.731Z,101295.41
2019-02-21T05:22:31.511Z,101300.78
2019-02-21T05:24:06.580Z,101284.83
2019-02-21T05:25:41.683Z,101287.23
2019-02-21T05:27:20.324Z,101283.88
2019-02-21T05:28:55.195Z,101290.52
2019-02-21T05:30:29.971Z,101290.94
2019-02-21T05:32:21.844Z,101290.81
2019-02-21T05:34:05.331Z,101284.48
2019-02-21T05:36:05.197Z,101285.00
2019-02-21T05:38:07.588Z,101292.02
2019-02-21T05:40:02.966Z,101286.70
2019-02-21T05:41:45.268Z,101282.39
2019-02-21T05:43:43.671Z,101282.13
2019-02-21T05:45:40.184Z,101287.13
2019-02-21T05:47:46.587Z,101283.94
2019-02-21T05:49:33.968Z,101287.30
2019-02-21T05:51:28.022Z,101288.41
2019-02-21T05:53:28.162Z,101290.48
2019-02-21T05:55:17.718Z,101299.11
2019-02-21T05:57:06.467Z,101299.05
2019-02-21T05:58:50.836Z,101291.70
2019-02-21T06:00:37.201Z,101287.20
2019-02-21T06:02:22.272Z,101296.61
2019-02-21T06:04:22.197Z,101294.91
2019-02-21T06:06:12.747Z,101295.13
2019-02-21T06:08:11.451Z,101291.19
2019-02-21T06:10:02.455Z,101303.74
2019-02-21T06:12:11.752Z,101299.53
2019-02-21T06:14:05.522Z,101306.45
2019-02-21T06:15:57.915Z,101306.52
2019-02-21T06:18:04.445Z,101302.73
2019-02-21T06:19:53.325Z,101311.30
2019-02-21T06:21:40.732Z,101315.29
2019-02-21T06:23:25.141Z,101307.37
2019-02-21T06:25:06.426Z,101314.77
2019-02-21T06:26:46.093Z,101314.38
2019-02-21T06:28:28.489Z,101312.73
2019-02-21T06:30:08.002Z,101313.31
2019-02-21T06:31:43.010Z,101318.42
2019-02-21T06:33:17.870Z,101315.92
2019-02-21T06:34:52.948Z,101319.44
2019-02-21T06:36:27.835Z,101323.31
2019-02-21T06:38:02.877Z,101321.03
2019-02-21T06:39:37.666Z,101323.53
2019-02-21T06:41:12.762Z,101322.09
2019-02-21T06:42:48.052Z,101322.77
2019-02-21T06:44:23.084Z,101321.45
2019-02-21T06:45:58.174Z,101316.14
2019-02-21T06:47:33.022Z,101312.00
2019-02-21T06:49:08.089Z,101316.64
2019-02-21T06:50:43.121Z,101315.06
2019-02-21T06:52:18.391Z,101311.61
2019-02-21T06:53:53.447Z,101313.89
2019-02-21T06:55:28.246Z,101315.61
2019-02-21T06:57:03.026Z,101305.97
2019-02-21T06:58:38.310Z,101315.05
2019-02-21T07:00:13.177Z,101305.39
2019-02-21T07:01:48.041Z,101307.99
2019-02-21T07:03:22.843Z,101299.80
2019-02-21T07:04:58.141Z,101298.09
2019-02-21T07:06:32.926Z,101298.16
2019-02-21T07:08:08.851Z,101298.64
2019-02-21T07:09:43.860Z,101297.47
2019-02-21T07:11:18.879Z,101298.67
2019-02-21T07:12:54.160Z,101288.18
2019-02-21T07:14:29.029Z,101294.52
2019-02-21T07:16:03.828Z,101288.84
2019-02-21T07:17:48.512Z,101282.27
2019-02-21T07:19:15.346Z,101284.39
2019-02-21T07:20:50.487Z,101279.30
2019-02-21T07:22:25.536Z,101288.25
2019-02-21T07:24:00.370Z,101285.52
2019-02-21T07:25:39.050Z,101283.65
2019-02-21T07:27:14.176Z,101276.05
2019-02-21T07:28:49.202Z,101276.61
2019-02-21T07:30:23.987Z,101280.91
2019-02-21T07:31:58.773Z,101285.05
2019-02-21T07:33:33.807Z,101285.66
2019-02-21T07:35:08.706Z,101287.08
2019-02-21T07:36:43.806Z,101291.66
2019-02-21T07:38:18.847Z,101292.98
2019-02-21T07:39:53.630Z,101293.52
2019-02-21T07:41:28.405Z,101285.37
2019-02-21T07:43:03.190Z,101282.05
2019-02-21T07:44:38.263Z,101287.42
2019-02-21T07:46:13.042Z,101285.91
2019-02-21T07:47:47.837Z,101286.20
2019-02-21T07:49:22.620Z,101286.81
2019-02-21T07:50:57.507Z,101282.86
2019-02-21T07:52:32.302Z,101284.35
2019-02-21T07:54:07.144Z,101282.48
2019-02-21T07:55:41.936Z,101280.66
2019-02-21T07:57:16.751Z,101281.97
2019-02-21T07:58:51.529Z,101275.75
2019-02-21T08:00:26.315Z,101271.70
2019-02-21T08:02:01.109Z,101276.34
2019-02-21T08:03:44.248Z,101277.60
2019-02-21T08:05:13.058Z,101277.14
2019-02-21T08:06:48.152Z,101280.30
2019-02-21T08:08:23.211Z,101286.33
2019-02-21T08:09:58.339Z,101283.94
2019-02-21T08:11:33.452Z,101281.11
2019-02-21T08:13:08.240Z,101284.91
2019-02-21T08:14:43.463Z,101287.02
2019-02-21T08:16:18.787Z,101294.34
2019-02-21T08:17:53.824Z,101293.73
2019-02-21T08:19:28.637Z,101297.73
2019-02-21T08:21:03.477Z,101296.58
2019-02-21T08:22:38.093Z,101296.98
2019-02-21T08:24:12.468Z,101288.03
2019-02-21T08:25:47.404Z,101296.43
2019-02-21T08:27:21.806Z,101292.34
2019-02-21T08:28:56.234Z,101295.11
2019-02-21T08:30:32.865Z,101288.47
2019-02-21T08:32:07.186Z,101293.22
2019-02-21T08:33:57.993Z,101300.03
2019-02-21T08:35:25.454Z,101295.24
2019-02-21T08:36:59.850Z,101295.93
2019-02-21T08:38:34.488Z,101293.41
2019-02-21T08:40:09.042Z,101306.86
2019-02-21T08:41:43.423Z,101300.09
2019-02-21T08:43:18.046Z,101300.34
2019-02-21T08:44:52.649Z,101300.50
2019-02-21T08:46:27.299Z,101295.42
2019-02-21T08:48:01.671Z,101307.83
2019-02-21T08:49:36.044Z,101301.92
2019-02-21T08:51:10.414Z,101303.47
2019-02-21T08:52:45.637Z,101296.34
2019-02-21T08:54:20.079Z,101301.83
2019-02-21T08:55:55.968Z,101297.49
2019-02-21T08:57:30.629Z,101294.16
2019-02-21T08:59:05.042Z,101295.95
2019-02-21T09:00:40.145Z,101298.70
2019-02-21T09:02:15.072Z,101295.40
2019-02-21T09:03:49.709Z,101288.95
2019-02-21T09:05:24.418Z,101292.32
2019-02-21T09:06:58.861Z,101294.06
2019-02-21T09:08:36.776Z,101287.92
2019-02-21T09:10:11.234Z,101286.61
2019-02-21T09:11:45.995Z,101294.27
2019-02-21T09:13:20.375Z,101292.20
2019-02-21T09:14:54.830Z,101283.30
2019-02-21T09:16:29.201Z,101288.99
2019-02-21T09:18:03.663Z,101290.92
2019-02-21T09:19:38.055Z,101293.79
2019-02-21T09:21:13.038Z,101283.92
2019-02-21T09:22:48.095Z,101277.13
2019-02-21T09:24:37.397Z,101272.77
2019-02-21T09:25:59.786Z,101281.79
2019-02-21T09:27:34.769Z,101283.81
2019-02-21T09:29:09.561Z,101270.17
2019-02-21T09:30:44.001Z,101274.23
2019-02-21T09:32:18.642Z,101275.51
2019-02-21T09:33:53.102Z,101280.19
2019-02-21T09:35:27.475Z,101271.73
2019-02-21T09:37:02.362Z,101275.75
2019-02-21T09:38:36.755Z,101276.47
2019-02-21T09:40:12.289Z,101267.02
2019-02-21T09:41:46.932Z,101281.22
2019-02-21T09:43:21.667Z,101283.41
2019-02-21T09:44:56.149Z,101272.52
2019-02-21T09:46:31.355Z,101268.70
2019-02-21T09:48:05.987Z,101277.63
2019-02-21T09:49:40.383Z,101278.05
2019-02-21T09:51:15.007Z,101280.53
2019-02-21T09:52:49.630Z,101278.59
2019-02-21T09:54:24.271Z,101277.32
2019-02-21T09:55:59.083Z,101274.37
2019-02-21T09:57:33.586Z,101272.43
2019-02-21T09:59:07.966Z,101269.78
2019-02-21T10:00:42.838Z,101266.89
2019-02-21T10:02:17.694Z,101271.44
2019-02-21T10:03:52.477Z,101268.91
2019-02-21T10:05:27.268Z,101266.27
2019-02-21T10:07:02.316Z,101270.72
2019-02-21T10:08:37.402Z,101260.18
2019-02-21T10:10:17.338Z,101265.59
2019-02-21T10:12:11.627Z,101254.67
2019-02-21T10:13:46.950Z,101253.52
2019-02-21T10:15:21.818Z,101255.32
2019-02-21T10:16:56.497Z,101258.62
2019-02-21T10:18:30.884Z,101256.82
2019-02-21T10:20:08.346Z,101262.83
2019-02-21T10:21:43.881Z,101260.67
2019-02-21T10:23:18.695Z,101263.25
2019-02-21T10:24:54.048Z,101264.95
2019-02-21T10:26:49.499Z,101264.02
2019-02-21T10:28:24.832Z,101266.23
2019-02-21T10:29:59.637Z,101268.90
2019-02-21T10:31:34.694Z,101273.34
2019-02-21T10:33:09.660Z,101280.81
2019-02-21T10:34:44.487Z,101279.83
2019-02-21T10:36:19.778Z,101274.43
2019-02-21T10:37:56.155Z,101277.16
2019-02-21T10:39:31.272Z,101276.05
2019-02-21T10:41:08.787Z,101284.01
2019-02-21T10:42:43.221Z,101281.26
2019-02-21T10:44:17.676Z,101285.70
2019-02-21T10:45:52.448Z,101288.91
2019-02-21T10:47:27.530Z,101284.14
2019-02-21T10:49:02.396Z,101285.25
2019-02-21T10:50:37.216Z,101282.52
2019-02-21T10:52:12.477Z,101283.53
2019-02-21T10:53:47.560Z,101286.59
2019-02-21T10:55:22.434Z,101284.95
2019-02-21T10:56:57.470Z,101283.44
2019-02-21T10:58:32.534Z,101273.39
2019-02-21T11:00:22.293Z,101279.64
2019-02-21T11:01:57.436Z,101285.45
2019-02-21T11:03:35.306Z,101282.89
2019-02-21T11:05:12.642Z,101284.45
2019-02-21T11:06:47.459Z,101278.23
2019-02-21T11:08:25.837Z,101287.91
2019-02-21T11:10:00.663Z,101291.10
2019-02-21T11:11:35.881Z,101288.95
2019-02-21T11:13:13.575Z,101288.27
2019-02-21T11:14:48.396Z,101290.18
2019-02-21T11:16:23.195Z,101289.31
2019-02-21T11:17:58.019Z,101287.91
2019-02-21T11:19:32.932Z,101285.43
2019-02-21T11:21:08.095Z,101291.02
2019-02-21T11:22:42.917Z,101285.61
2019-02-21T11:24:18.740Z,101287.06
2019-02-21T11:25:53.598Z,101278.66
2019-02-21T11:27:28.714Z,101277.98
2019-02-21T11:29:03.790Z,101267.27
2019-02-21T11:30:38.937Z,101267.74
2019-02-21T11:32:13.824Z,101266.19
2019-02-21T11:33:48.681Z,101267.96
2019-02-21T11:35:23.727Z,101258.31
2019-02-21T11:36:58.763Z,101245.83
2019-02-21T11:38:33.922Z,101245.30
2019-02-21T11:40:10.488Z,101236.19
2019-02-21T11:41:45.526Z,101238.36
2019-02-21T11:43:20.336Z,101231.70
2019-02-21T11:44:55.311Z,101235.30
2019-02-21T11:46:30.335Z,101241.30
2019-02-21T11:48:05.670Z,101240.10
2019-02-21T11:49:40.318Z,101233.13
2019-02-21T11:51:15.008Z,101226.13
2019-02-21T11:52:50.136Z,101223.75
2019-02-21T11:54:27.138Z,101224.42
2019-02-21T11:56:02.159Z,101223.77
2019-02-21T11:57:37.217Z,101219.38
2019-02-21T11:59:12.051Z,101228.40
2019-02-21T12:00:46.910Z,101223.60
2019-02-21T12:02:21.784Z,101222.15
2019-02-21T12:03:56.817Z,101212.21
2019-02-21T12:05:32.186Z,101208.75
2019-02-21T12:07:07.293Z,101200.34
2019-02-21T12:08:42.559Z,101197.83
2019-02-21T12:10:17.510Z,101198.97
2019-02-21T12:11:52.603Z,101198.30
2019-02-21T12:13:27.421Z,101204.48
2019-02-21T12:15:02.520Z,101197.61
2019-02-21T12:16:37.404Z,101200.13
2019-02-21T12:18:12.822Z,101200.16
2019-02-21T12:19:47.935Z,101208.12
2019-02-21T12:21:22.939Z,101213.85
2019-02-21T12:22:58.000Z,101208.16
2019-02-21T12:24:33.296Z,101213.58
2019-02-21T12:26:08.393Z,101205.89
2019-02-21T12:27:43.544Z,101204.16
2019-02-21T12:29:18.604Z,101201.55
2019-02-21T12:30:54.088Z,101198.09
2019-02-21T12:32:28.938Z,101191.14
2019-02-21T12:34:08.570Z,101185.00
2019-02-21T12:35:43.440Z,101188.12
2019-02-21T12:37:18.192Z,101179.07
2019-02-21T12:38:53.225Z,101179.19
2019-02-21T12:40:27.668Z,101174.97
2019-02-21T12:42:02.960Z,101172.84
2019-02-21T12:43:37.347Z,101174.89
2019-02-21T12:45:15.156Z,101172.56
2019-02-21T12:46:49.955Z,101169.86
2019-02-21T12:48:25.028Z,101165.30
2019-02-21T12:49:59.844Z,101164.69
2019-02-21T12:51:34.633Z,101161.89
2019-02-21T12:53:09.508Z,101165.31
2019-02-21T12:54:44.319Z,101167.52
2019-02-21T12:56:19.118Z,101163.58
2019-02-21T12:57:54.203Z,101163.66
2019-02-21T12:59:28.994Z,101159.70
2019-02-21T13:01:04.058Z,101158.63
2019-02-21T13:02:38.940Z,101160.80
2019-02-21T13:04:13.743Z,101160.62
2019-02-21T13:05:48.546Z,101157.02
2019-02-21T13:07:23.810Z,101151.63
2019-02-21T13:08:58.886Z,101150.62
2019-02-21T13:10:34.995Z,101152.45
2019-02-21T13:12:10.290Z,101153.95
2019-02-21T13:13:45.110Z,101160.49
2019-02-21T13:15:19.940Z,101154.56
2019-02-21T13:16:55.442Z,101152.96
2019-02-21T13:18:30.237Z,101156.36
2019-02-21T13:20:05.492Z,101157.67
2019-02-21T13:21:40.249Z,101146.70
2019-02-21T13:23:15.344Z,101153.00
2019-02-21T13:24:50.385Z,101151.13
2019-02-21T13:26:25.209Z,101151.87
2019-02-21T13:28:00.021Z,101151.48
2019-02-21T13:29:34.817Z,101157.23
2019-02-21T13:31:09.837Z,101155.44
2019-02-21T13:32:44.805Z,101151.63
2019-02-21T13:34:19.594Z,101152.45
2019-02-21T13:35:54.885Z,101149.37
2019-02-21T13:37:29.679Z,101148.67
2019-02-21T13:39:07.064Z,101149.58
2019-02-21T13:40:41.844Z,101140.91
2019-02-21T13:42:16.877Z,101148.89
2019-02-21T13:43:51.937Z,101142.73
2019-02-21T13:45:27.060Z,101143.64
2019-02-21T13:47:02.155Z,101152.83
2019-02-21T13:48:37.338Z,101142.63
2019-02-21T13:50:15.356Z,101151.98
2019-02-21T13:51:50.490Z,101145.16
2019-02-21T13:53:25.302Z,101148.90
2019-02-21T13:55:00.506Z,101139.09
2019-02-21T13:56:35.544Z,101141.70
2019-02-21T13:58:10.608Z,101146.27
2019-02-21T13:59:45.824Z,101140.06
2019-02-21T14:01:21.103Z,101143.64
2019-02-21T14:02:56.466Z,101138.95
2019-02-21T14:04:31.972Z,101139.43
2019-02-21T14:06:07.862Z,101140.48
2019-02-21T14:07:43.012Z,101133.90
2019-02-21T14:09:18.063Z,101136.22
2019-02-21T14:10:53.434Z,101142.52
2019-02-21T14:12:28.507Z,101144.88
2019-02-21T14:14:03.312Z,101147.31
2019-02-21T14:15:38.342Z,101139.28
2019-02-21T14:17:15.059Z,101136.02
2019-02-21T14:18:50.068Z,101144.84
2019-02-21T14:20:24.927Z,101137.41
2019-02-21T14:21:59.980Z,101125.33
2019-02-21T14:23:35.071Z,101129.77
2019-02-21T14:25:10.070Z,101138.28
2019-02-21T14:26:44.852Z,101143.62
2019-02-21T14:28:20.193Z,101137.81
2019-02-21T14:29:55.460Z,101144.79
2019-02-21T14:31:33.551Z,101134.69
2019-02-21T14:33:08.111Z,101131.55
2019-02-21T14:34:43.622Z,101127.25
2019-02-21T14:36:19.382Z,101136.22
2019-02-21T14:37:54.528Z,101132.98
2019-02-21T14:39:29.648Z,101139.90
2019-02-21T14:41:04.467Z,101147.09
2019-02-21T14:42:39.330Z,101149.34
2019-02-21T14:44:14.133Z,101149.33
2019-02-21T14:45:49.200Z,101146.88
2019-02-21T14:47:24.987Z,101148.03
2019-02-21T14:49:00.044Z,101148.69
2019-02-21T14:50:36.111Z,101146.67
2019-02-21T14:52:11.339Z,101153.50
2019-02-21T14:53:46.372Z,101142.75
2019-02-21T14:55:21.535Z,101153.36
2019-02-21T14:56:56.580Z,101146.58
2019-02-21T14:58:31.404Z,101151.28
2019-02-21T15:00:10.915Z,101147.66
2019-02-21T15:01:45.719Z,101153.39
2019-02-21T15:03:22.162Z,101151.17
2019-02-21T15:04:57.535Z,101152.19
2019-02-21T15:06:32.667Z,101152.45
2019-02-21T15:08:07.477Z,101147.13
2019-02-21T15:09:42.359Z,101143.19
2019-02-21T15:11:17.154Z,101147.28
2019-02-21T15:12:52.227Z,101148.89
2019-02-21T15:14:26.926Z,101137.81
2019-02-21T15:16:01.343Z,101140.05
2019-02-21T15:17:36.040Z,101139.38
2019-02-21T15:19:10.505Z,101142.48
2019-02-21T15:20:45.427Z,101139.73
2019-02-21T15:22:20.229Z,101141.19
2019-02-21T15:23:55.025Z,101141.55
2019-02-21T15:25:29.805Z,101135.12
2019-02-21T15:27:08.415Z,101141.81
2019-02-21T15:28:41.381Z,101141.73
2019-02-21T15:30:18.477Z,101137.26
2019-02-21T15:31:53.557Z,101146.18
2019-02-21T15:33:28.613Z,101144.34
2019-02-21T15:35:03.412Z,101146.23
2019-02-21T15:36:38.741Z,101146.13
2019-02-21T15:38:19.925Z,101154.95
2019-02-21T15:39:50.545Z,101149.60
2019-02-21T15:41:25.781Z,101157.31
2019-02-21T15:43:00.580Z,101152.81
2019-02-21T15:44:35.002Z,101155.84
2019-02-21T15:46:09.706Z,101151.50
2019-02-21T15:47:44.705Z,101152.25
2019-02-21T15:49:19.066Z,101148.58
2019-02-21T15:50:53.430Z,101148.39
2019-02-21T15:52:28.237Z,101150.73
2019-02-21T15:54:02.812Z,101160.10
2019-02-21T15:55:37.498Z,101165.51
2019-02-21T15:57:13.085Z,101158.63
2019-02-21T15:58:47.608Z,101160.68
2019-02-21T16:00:22.539Z,101154.42
2019-02-21T16:01:57.594Z,101159.53
2019-02-21T16:03:32.454Z,101158.23
2019-02-21T16:05:07.568Z,101163.23
2019-02-21T16:06:50.920Z,101163.98
2019-02-21T16:08:32.421Z,101166.27
2019-02-21T16:10:10.633Z,101169.64
2019-02-21T16:11:45.997Z,101164.14
2019-02-21T16:13:21.461Z,101168.49
2019-02-21T16:14:56.508Z,101168.38
2019-02-21T16:16:31.537Z,101166.23
2019-02-21T16:18:06.352Z,101166.89
2019-02-21T16:19:41.177Z,101173.78
2019-02-21T16:21:16.451Z,101177.22
2019-02-21T16:22:51.269Z,101179.69
2019-02-21T16:24:26.054Z,101178.12
2019-02-21T16:26:01.426Z,101171.48
2019-02-21T16:27:36.461Z,101172.30
2019-02-21T16:29:11.264Z,101170.07
2019-02-21T16:30:46.222Z,101170.20
2019-02-21T16:32:21.270Z,101170.75
2019-02-21T16:33:56.086Z,101175.20
2019-02-21T16:35:30.991Z,101175.91
2019-02-21T16:37:06.011Z,101173.06
2019-02-21T16:38:40.851Z,101173.41
2019-02-21T16:40:15.937Z,101174.48
2019-02-21T16:41:51.004Z,101171.64
2019-02-21T16:43:25.845Z,101176.81
2019-02-21T16:45:00.845Z,101173.42
2019-02-21T16:46:35.920Z,101170.73
2019-02-21T16:48:11.171Z,101175.99
2019-02-21T16:49:45.994Z,101169.88
2019-02-21T16:51:22.219Z,101175.13
2019-02-21T16:52:57.184Z,101179.25
2019-02-21T16:54:32.206Z,101177.38
2019-02-21T16:56:07.048Z,101174.05
2019-02-21T16:57:41.864Z,101168.86
2019-02-21T16:59:16.895Z,101168.41
2019-02-21T17:00:56.573Z,101175.73
2019-02-21T17:02:28.963Z,101178.55
2019-02-21T17:04:03.755Z,101177.59
2019-02-21T17:05:38.547Z,101181.16
2019-02-21T17:07:19.794Z,101177.52
2019-02-21T17:08:50.053Z,101184.80
2019-02-21T17:10:25.326Z,101185.54
2019-02-21T17:12:00.854Z,101185.38
2019-02-21T17:13:35.915Z,101184.08
2019-02-21T17:15:12.187Z,101183.75
2019-02-21T17:16:46.874Z,101187.72
2019-02-21T17:18:21.637Z,101187.16
2019-02-21T17:19:56.016Z,101186.42
2019-02-21T17:21:30.409Z,101182.61
2019-02-21T17:23:05.210Z,101183.38
2019-02-21T17:24:39.846Z,101189.36
2019-02-21T17:26:14.511Z,101199.34
2019-02-21T17:27:49.096Z,101195.94
2019-02-21T17:29:23.850Z,101198.50
2019-02-21T17:30:59.050Z,101203.39
2019-02-21T17:32:33.728Z,101201.11
2019-02-21T17:34:08.202Z,101207.58
2019-02-21T17:35:42.594Z,101207.07
2019-02-21T17:37:24.657Z,101210.53
2019-02-21T17:38:54.063Z,101208.52
2019-02-21T17:40:28.911Z,101207.90
2019-02-21T17:42:03.826Z,101200.44
2019-02-21T17:43:39.089Z,101204.62
2019-02-21T17:45:15.148Z,101198.63
2019-02-21T17:46:49.964Z,101206.80
2019-02-21T17:48:25.047Z,101204.64
2019-02-21T17:50:00.233Z,101206.67
2019-02-21T17:51:35.072Z,101205.75
2019-02-21T17:53:09.967Z,101210.96
2019-02-21T17:54:46.569Z,101209.80
2019-02-21T17:56:21.373Z,101201.45
2019-02-21T17:57:56.213Z,101201.97
2019-02-21T17:59:31.749Z,101206.13
2019-02-21T18:01:07.400Z,101204.31
2019-02-21T18:02:42.697Z,101209.54
2019-02-21T18:04:17.828Z,101205.36
2019-02-21T18:05:52.897Z,101204.28
2019-02-21T18:07:36.143Z,101208.20
2019-02-21T18:09:05.620Z,101207.09
2019-02-21T18:10:40.427Z,101211.52
2019-02-21T18:12:15.353Z,101206.59
2019-02-21T18:13:50.417Z,101205.55
2019-02-21T18:15:25.341Z,101209.53